^^
Saratoga-Weather Station Historical Data
Daily Summary for November 23, 2021 Units:  English    Metric   Both
Daily Weekly Monthly Yearly Custom
  High: Low: Average:
Temperature: 44.4 °F 31.3 °F 40.5 °F
Dew Point: 39 °F 28.9 °F 34.9 °F
Humidity: 91% 67% 81%
Wind Speed: 6.9mph 0mph 1mph
Wind Gust: 12mph - -
Wind- - ESE
Pressure: 30.4 in 30.3 in -
Precipitation: 0 in    
Historical Graphs
 
 
Tabular Data for November 23, 2021
Time Temperature Dew Point Pressure Wind Wind Speed Wind Gust Humidity Rainfall Rate (Hourly) solar
08:15 31.3 °F 28.9 °F 30.4 in Calm     91% 0 in 9 W/m2
08:20 31.3 °F 28.9 °F 30.4 in Calm   1 mph 91% 0 in 9 W/m2
08:25 31.3 °F 28.9 °F 30.4 in WNW 2 mph 2 mph 91% 0 in 11 W/m2
08:30 31.5 °F 29.1 °F 30.4 in Calm   2 mph 91% 0 in 11 W/m2
08:35 31.6 °F 29.3 °F 30.4 in East 0.9 mph 1 mph 91% 0 in 12 W/m2
08:40 31.8 °F 29.3 °F 30.4 in Calm   4 mph 90% 0 in 12 W/m2
08:45 32.2 °F 29.7 °F 30.4 in NW 0.9 mph 3 mph 90% 0 in 14 W/m2
08:50 32.4 °F 29.5 °F 30.4 in Calm   4 mph 89% 0 in 14 W/m2
08:55 32.4 °F 29.5 °F 30.4 in West 2 mph 2 mph 89% 0 in 16 W/m2
09:00 32.4 °F 29.5 °F 30.4 in Calm   2 mph 89% 0 in 16 W/m2
09:05 32.5 °F 29.3 °F 30.4 in NW 0.9 mph 3 mph 88% 0 in 16 W/m2
09:10 32.7 °F 29.5 °F 30.4 in Calm     88% 0 in 18 W/m2
09:15 32.9 °F 29.7 °F 30.4 in Calm   1 mph 88% 0 in 18 W/m2
09:20 32.9 °F 29.7 °F 30.4 in Calm     88% 0 in 18 W/m2
09:25 33.1 °F 29.8 °F 30.4 in Calm     88% 0 in 19 W/m2
09:30 33.1 °F 29.8 °F 30.4 in Calm   1 mph 88% 0 in 19 W/m2
09:35 33.1 °F 29.8 °F 30.4 in Calm   1 mph 88% 0 in 21 W/m2
09:40 33.1 °F 29.8 °F 30.4 in Calm   3 mph 88% 0 in 23 W/m2
09:45 33.3 °F 30 °F 30.4 in ENE 2 mph 4 mph 88% 0 in 21 W/m2
09:50 33.6 °F 30.4 °F 30.4 in East 0.9 mph 4 mph 88% 0 in 21 W/m2
09:55 34 °F 30.6 °F 30.4 in East 0.9 mph 3 mph 87% 0 in 26 W/m2
10:00 34.2 °F 30.7 °F 30.4 in Calm   4 mph 87% 0 in 23 W/m2
10:05 34.3 °F 30.6 °F 30.4 in ENE 2 mph 3 mph 86% 0 in 23 W/m2
10:10 34.5 °F 30.6 °F 30.4 in Calm   1 mph 85% 0 in 26 W/m2
10:15 34.5 °F 30.6 °F 30.4 in Calm     85% 0 in 32 W/m2
10:20 34.5 °F 30.6 °F 30.4 in ENE 0.9 mph 2 mph 85% 0 in 28 W/m2
10:25 34.7 °F 30.7 °F 30.4 in Calm   1 mph 85% 0 in 32 W/m2
10:30 34.9 °F 30.9 °F 30.4 in Calm   3 mph 85% 0 in 26 W/m2
10:35 35.2 °F 30.9 °F 30.4 in East 0.9 mph 1 mph 84% 0 in 26 W/m2
10:40 35.6 °F 31.3 °F 30.4 in Calm   2 mph 84% 0 in 25 W/m2
10:46 36 °F 31.3 °F 30.4 in Calm   2 mph 83% 0 in 25 W/m2
10:51 36.1 °F 31.1 °F 30.4 in NNW 0.9 mph 3 mph 82% 0 in 30 W/m2
10:56 36.3 °F 31.3 °F 30.4 in Calm   3 mph 82% 0 in 28 W/m2
11:01 36.7 °F 31.5 °F 30.4 in Calm   3 mph 81% 0 in 25 W/m2
11:06 36.9 °F 31.6 °F 30.4 in Calm   2 mph 81% 0 in 28 W/m2
11:11 37 °F 31.5 °F 30.4 in Calm   3 mph 80% 0 in 32 W/m2
11:16 37.4 °F 31.5 °F 30.4 in Calm   3 mph 79% 0 in 33 W/m2
11:21 37.8 °F 31.5 °F 30.4 in Calm   4 mph 78% 0 in 39 W/m2
11:26 38.1 °F 31.6 °F 30.4 in East 4 mph 4 mph 77% 0 in 25 W/m2
11:31 38.5 °F 31.6 °F 30.4 in North 2.9 mph 6 mph 76% 0 in 39 W/m2
11:36 38.8 °F 31.6 °F 30.4 in Calm   4 mph 75% 0 in 30 W/m2
11:41 39.4 °F 31.5 °F 30.4 in East 4 mph 5 mph 73% 0 in 30 W/m2
11:46 39.7 °F 31.5 °F 30.4 in East 4 mph 5 mph 72% 0 in 25 W/m2
11:51 40.1 °F 31.5 °F 30.4 in ENE 2 mph 6 mph 71% 0 in 26 W/m2
11:56 40.3 °F 31.6 °F 30.4 in ESE 2.9 mph 5 mph 71% 0 in 32 W/m2
12:01 40.5 °F 31.8 °F 30.4 in ESE 0.9 mph 3 mph 71% 0 in 47 W/m2
12:06 40.6 °F 32.4 °F 30.4 in North 4 mph 6 mph 72% 0 in 30 W/m2
12:11 40.8 °F 32.5 °F 30.4 in North 2 mph 6 mph 72% 0 in 25 W/m2
12:16 41 °F 32.4 °F 30.4 in NNE 0.9 mph 4 mph 71% 0 in 26 W/m2
12:21 41.2 °F 32.5 °F 30.4 in East 2 mph 3 mph 71% 0 in 33 W/m2
12:26 41.2 °F 32.2 °F 30.4 in ENE 0.9 mph 6 mph 70% 0 in 25 W/m2
12:31 41.4 °F 32.4 °F 30.4 in NE 4.9 mph 6 mph 70% 0 in 26 W/m2
12:36 41.5 °F 32.2 °F 30.4 in Calm   7 mph 69% 0 in 26 W/m2
12:41 41.7 °F 32.4 °F 30.4 in SE 2 mph 3 mph 69% 0 in 30 W/m2
12:46 41.9 °F 32.5 °F 30.4 in NE 2 mph 5 mph 69% 0 in 30 W/m2
12:51 42.1 °F 32.7 °F 30.4 in Calm   3 mph 69% 0 in 32 W/m2
12:56 42.3 °F 32.5 °F 30.4 in ESE 2.9 mph 6 mph 68% 0 in 26 W/m2
13:01 42.4 °F 32.7 °F 30.4 in ENE 4 mph 4 mph 68% 0 in 26 W/m2
13:06 42.4 °F 33.1 °F 30.4 in ENE 2 mph 9 mph 69% 0 in 25 W/m2
13:11 42.6 °F 33.1 °F 30.4 in NE 4 mph 6 mph 69% 0 in 35 W/m2
13:16 42.8 °F 33.3 °F 30.4 in East 6.9 mph 9 mph 69% 0 in 26 W/m2
13:21 43 °F 33.1 °F 30.4 in ENE 4.9 mph 12 mph 68% 0 in 25 W/m2
13:26 43.2 °F 33.3 °F 30.4 in ENE 4.9 mph 8 mph 68% 0 in 25 W/m2
13:31 43.3 °F 33.4 °F 30.4 in ENE 2 mph 12 mph 68% 0 in 25 W/m2
13:36 43.5 °F 33.6 °F 30.4 in SE 0.9 mph 4 mph 68% 0 in 51 W/m2
13:41 43.5 °F 33.6 °F 30.4 in East 4 mph 6 mph 68% 0 in 26 W/m2
13:46 43.5 °F 33.3 °F 30.4 in ENE 4.9 mph 6 mph 67% 0 in 26 W/m2
13:51 43.5 °F 33.3 °F 30.4 in ENE 0.9 mph 2 mph 67% 0 in 72 W/m2
13:56 43.5 °F 33.6 °F 30.4 in ENE 2.9 mph 6 mph 68% 0 in 33 W/m2
14:01 43.5 °F 33.3 °F 30.4 in ESE 4 mph 6 mph 67% 0 in 25 W/m2
14:06 43.9 °F 34 °F 30.4 in NNE 2 mph 6 mph 68% 0 in 25 W/m2
14:11 43.9 °F 33.6 °F 30.4 in NE 2 mph 5 mph 67% 0 in 25 W/m2
14:16 43.9 °F 34 °F 30.4 in ENE 0.9 mph 9 mph 68% 0 in 25 W/m2
14:21 43.9 °F 34.3 °F 30.4 in East 0.9 mph 3 mph 69% 0 in 23 W/m2
14:26 43.9 °F 34.3 °F 30.4 in North 2 mph 9 mph 69% 0 in 23 W/m2
14:31 44.1 °F 34.5 °F 30.4 in Calm   1 mph 69% 0 in 23 W/m2
14:36 44.1 °F 34.5 °F 30.4 in ENE 2.9 mph 3 mph 69% 0 in 21 W/m2
14:41 44.1 °F 34.5 °F 30.4 in ESE 0.9 mph 5 mph 69% 0 in 21 W/m2
14:46 44.1 °F 34.5 °F 30.4 in Calm   3 mph 69% 0 in 21 W/m2
14:51 44.1 °F 34.9 °F 30.4 in NE 2 mph 2 mph 70% 0 in 21 W/m2
14:56 44.1 °F 34.9 °F 30.4 in SSE 0.9 mph 3 mph 70% 0 in 21 W/m2
15:01 44.1 °F 34.9 °F 30.4 in Calm   3 mph 70% 0 in 19 W/m2
15:06 44.1 °F 34.9 °F 30.3 in ENE 2 mph 4 mph 70% 0 in 19 W/m2
15:11 44.2 °F 35.1 °F 30.4 in NNE 0.9 mph 4 mph 70% 0 in 19 W/m2
15:16 44.2 °F 35.1 °F 30.4 in Calm   1 mph 70% 0 in 19 W/m2
15:21 44.2 °F 35.1 °F 30.3 in NNW 0.9 mph 2 mph 70% 0 in 19 W/m2
15:26 44.1 °F 34.9 °F 30.3 in Calm   2 mph 70% 0 in 18 W/m2
15:31 44.1 °F 34.9 °F 30.3 in NE 0.9 mph 1 mph 70% 0 in 18 W/m2
15:36 44.1 °F 35.2 °F 30.3 in East 0.9 mph 4 mph 71% 0 in 18 W/m2
15:41 44.1 °F 35.2 °F 30.3 in NE 0.9 mph 4 mph 71% 0 in 18 W/m2
15:46 44.2 °F 35.4 °F 30.3 in SSE 0.9 mph 4 mph 71% 0 in 16 W/m2
15:51 44.2 °F 35.8 °F 30.3 in ENE 0.9 mph 6 mph 72% 0 in 16 W/m2
15:56 44.2 °F 35.8 °F 30.3 in ENE 0.9 mph 3 mph 72% 0 in 16 W/m2
16:01 44.2 °F 36.1 °F 30.3 in ENE 2.9 mph 4 mph 73% 0 in 19 W/m2
16:06 44.2 °F 36.1 °F 30.3 in ESE 0.9 mph 2 mph 73% 0 in 25 W/m2
16:11 44.2 °F 36.5 °F 30.4 in East 0.9 mph 6 mph 74% 0 in 26 W/m2
16:16 44.2 °F 36.5 °F 30.3 in East 2 mph 7 mph 74% 0 in 23 W/m2
16:21 44.4 °F 36.7 °F 30.3 in East 4 mph 4 mph 74% 0 in 18 W/m2
16:26 44.2 °F 36.5 °F 30.3 in Calm   7 mph 74% 0 in 11 W/m2
16:31 44.1 °F 36.7 °F 30.3 in ENE 2 mph 4 mph 75% 0 in 9 W/m2
16:36 44.1 °F 36.7 °F 30.3 in SE 0.9 mph 3 mph 75% 0 in 7 W/m2
16:41 43.7 °F 36.7 °F 30.3 in ESE 0.9 mph 3 mph 76% 0 in 5 W/m2
16:51 43.3 °F 36.7 °F 30.3 in ENE 2 mph 2 mph 77% 0 in 0 W/m2
16:56 43.2 °F 36.5 °F 30.3 in Calm   2 mph 77% 0 in 0 W/m2
17:01 43 °F 36.7 °F 30.3 in Calm   2 mph 78% 0 in 0 W/m2
17:06 42.6 °F 36.3 °F 30.3 in Calm   1 mph 78% 0 in 0 W/m2
17:11 42.4 °F 36.3 °F 30.3 in Calm     79% 0 in 0 W/m2
17:21 42.1 °F 36.3 °F 30.3 in Calm   1 mph 80% 0 in 0 W/m2
17:26 42.1 °F 36.7 °F 30.3 in Calm     81% 0 in 0 W/m2
17:31 41.9 °F 36.9 °F 30.3 in Calm     82% 0 in 0 W/m2
17:36 41.7 °F 36.9 °F 30.3 in SSE 2 mph 4 mph 83% 0 in 0 W/m2
17:42 41.9 °F 37.4 °F 30.3 in ENE 0.9 mph 4 mph 84% 0 in 0 W/m2
17:47 42.1 °F 37.6 °F 30.3 in Calm   3 mph 84% 0 in 0 W/m2
17:52 42.1 °F 37.6 °F 30.3 in NE 0.9 mph 2 mph 84% 0 in 0 W/m2
17:57 42.1 °F 37.6 °F 30.3 in West 0.9 mph 3 mph 84% 0 in 0 W/m2
18:02 42.1 °F 37.6 °F 30.3 in ENE 0.9 mph 3 mph 84% 0 in 0 W/m2
18:07 42.1 °F 37.6 °F 30.3 in Calm     84% 0 in 0 W/m2
18:12 41.9 °F 37.4 °F 30.3 in West 0.9 mph 2 mph 84% 0 in 0 W/m2
18:17 41.5 °F 37 °F 30.3 in WNW 0.9 mph 2 mph 84% 0 in 0 W/m2
18:22 41.5 °F 37.4 °F 30.3 in ENE 0.9 mph 3 mph 85% 0 in 0 W/m2
18:27 41.5 °F 37.6 °F 30.4 in Calm   3 mph 86% 0 in 0 W/m2
18:32 41.5 °F 37.6 °F 30.4 in Calm   2 mph 86% 0 in 0 W/m2
18:37 41.4 °F 37.6 °F 30.4 in East 0.9 mph 3 mph 86% 0 in 0 W/m2
18:42 41.4 °F 37.6 °F 30.4 in ENE 0.9 mph 1 mph 86% 0 in 0 W/m2
18:47 41.5 °F 37.6 °F 30.4 in Calm   2 mph 86% 0 in 0 W/m2
18:52 41.5 °F 37.6 °F 30.4 in Calm   2 mph 86% 0 in 0 W/m2
18:57 41.5 °F 37.6 °F 30.4 in Calm   3 mph 86% 0 in 0 W/m2
19:02 41.5 °F 37.6 °F 30.4 in Calm   1 mph 86% 0 in 0 W/m2
19:07 41.5 °F 37.6 °F 30.4 in Calm   4 mph 86% 0 in 0 W/m2
19:12 41.4 °F 37.6 °F 30.4 in Calm     86% 0 in 0 W/m2
19:17 41.4 °F 37.6 °F 30.4 in Calm     86% 0 in 0 W/m2
19:27 41.2 °F 37.6 °F 30.4 in Calm   1 mph 87% 0 in 0 W/m2
19:32 41.2 °F 37.6 °F 30.4 in Calm     87% 0 in 0 W/m2
19:42 41.4 °F 37.8 °F 30.4 in Calm     87% 0 in 0 W/m2
19:47 41.4 °F 37.8 °F 30.4 in Calm     87% 0 in 0 W/m2
19:52 41.4 °F 37.8 °F 30.4 in East 0.9 mph 2 mph 87% 0 in 0 W/m2
19:57 41.4 °F 37.8 °F 30.4 in Calm     87% 0 in 0 W/m2
20:02 41.4 °F 37.8 °F 30.4 in Calm   3 mph 87% 0 in 0 W/m2
20:07 41.5 °F 37.9 °F 30.4 in Calm   1 mph 87% 0 in 0 W/m2
20:12 41.5 °F 37.9 °F 30.4 in Calm   3 mph 87% 0 in 0 W/m2
20:17 41.5 °F 37.9 °F 30.4 in Calm     87% 0 in 0 W/m2
20:22 41.5 °F 37.9 °F 30.4 in Calm     87% 0 in 0 W/m2
20:27 41.7 °F 38.1 °F 30.4 in Calm     87% 0 in 0 W/m2
20:33 41.7 °F 38.5 °F 30.4 in Calm     88% 0 in 0 W/m2
20:38 41.7 °F 38.5 °F 30.3 in Calm     88% 0 in 0 W/m2
20:43 41.9 °F 38.7 °F 30.3 in Calm     88% 0 in 0 W/m2
20:48 42.1 °F 38.8 °F 30.3 in Calm     88% 0 in 0 W/m2
20:53 42.1 °F 38.8 °F 30.3 in NE 2 mph 2 mph 88% 0 in 0 W/m2
20:58 42.3 °F 39 °F 30.3 in ESE 2.9 mph 3 mph 88% 0 in 0 W/m2
21:03 42.3 °F 39 °F 30.3 in Calm   3 mph 88% 0 in 0 W/m2
21:08 42.3 °F 39 °F 30.3 in NE 2 mph 2 mph 88% 0 in 0 W/m2
21:13 42.3 °F 39 °F 30.3 in Calm   2 mph 88% 0 in 0 W/m2
21:18 42.3 °F 39 °F 30.3 in Calm   1 mph 88% 0 in 0 W/m2
21:23 42.3 °F 39 °F 30.3 in Calm     88% 0 in 0 W/m2
21:28 42.3 °F 39 °F 30.3 in Calm   3 mph 88% 0 in 0 W/m2
21:33 42.3 °F 39 °F 30.3 in ESE 0.9 mph 3 mph 88% 0 in 0 W/m2
21:43 42.3 °F 39 °F 30.3 in Calm   2 mph 88% 0 in 0 W/m2
21:48 42.3 °F 39 °F 30.3 in Calm   3 mph 88% 0 in 0 W/m2
21:53 42.3 °F 39 °F 30.3 in Calm   2 mph 88% 0 in 0 W/m2
21:58 42.3 °F 39 °F 30.3 in Calm   2 mph 88% 0 in 0 W/m2
22:03 42.3 °F 39 °F 30.3 in Calm   3 mph 88% 0 in 0 W/m2
22:08 42.3 °F 39 °F 30.3 in ENE 0.9 mph 5 mph 88% 0 in 0 W/m2
22:13 42.3 °F 39 °F 30.3 in Calm   3 mph 88% 0 in 0 W/m2
22:18 42.3 °F 39 °F 30.3 in Calm   5 mph 88% 0 in 0 W/m2
22:23 42.3 °F 39 °F 30.3 in Calm   2 mph 88% 0 in 0 W/m2
22:28 42.3 °F 39 °F 30.3 in Calm   1 mph 88% 0 in 0 W/m2
22:33 42.1 °F 38.8 °F 30.3 in Calm   2 mph 88% 0 in 0 W/m2
22:38 41.9 °F 38.7 °F 30.3 in Calm   2 mph 88% 0 in 0 W/m2
22:43 41.7 °F 38.5 °F 30.3 in Calm   1 mph 88% 0 in 0 W/m2
22:48 41.7 °F 38.7 °F 30.3 in East 2.9 mph 4 mph 89% 0 in 0 W/m2
22:53 41.5 °F 38.5 °F 30.3 in ESE 2 mph 2 mph 89% 0 in 0 W/m2
22:58 41.5 °F 38.5 °F 30.3 in Calm   1 mph 89% 0 in 0 W/m2
23:03 41.4 °F 38.3 °F 30.3 in ENE 2 mph 4 mph 89% 0 in 0 W/m2
23:08 41.2 °F 38.1 °F 30.3 in NNE 0.9 mph 1 mph 89% 0 in 0 W/m2
23:13 41 °F 37.9 °F 30.3 in Calm   1 mph 89% 0 in 0 W/m2
23:18 40.6 °F 37.9 °F 30.3 in Calm     90% 0 in 0 W/m2
23:23 40.5 °F 37.8 °F 30.3 in Calm   2 mph 90% 0 in 0 W/m2
23:28 40.3 °F 37.6 °F 30.3 in Calm   5 mph 90% 0 in 0 W/m2
23:33 40.1 °F 37.4 °F 30.3 in SE 2.9 mph 3 mph 90% 0 in 0 W/m2
23:38 39.9 °F 37.6 °F 30.3 in East 0.9 mph 3 mph 91% 0 in 0 W/m2
23:43 39.7 °F 37.4 °F 30.3 in Calm   1 mph 91% 0 in 0 W/m2
23:48 39.7 °F 37.4 °F 30.3 in ENE 2.9 mph 3 mph 91% 0 in 0 W/m2
23:53 39.6 °F 37.2 °F 30.3 in East 0.9 mph 2 mph 91% 0 in 0 W/m2
23:58 39.6 °F 37.2 °F 30.3 in Calm   2 mph 91% 0 in 0 W/m2
Juneau County Weather
Compliments of Weather Underground - 2 mb